createdAt,value
2023-09-17T00:00:28.095Z,73.34
2023-09-17T00:01:30.175Z,73.35
2023-09-17T00:02:33.085Z,74.23
2023-09-17T00:03:35.312Z,73.70
2023-09-17T00:04:37.448Z,73.32
2023-09-17T00:05:39.380Z,74.07
2023-09-17T00:06:42.367Z,73.71
2023-09-17T00:07:44.763Z,73.36
2023-09-17T00:08:46.757Z,74.25
2023-09-17T00:09:48.687Z,73.94
2023-09-17T00:10:50.758Z,73.96
2023-09-17T00:11:52.794Z,73.63
2023-09-17T00:12:59.198Z,73.41
2023-09-17T00:14:01.350Z,73.84
2023-09-17T00:15:04.082Z,73.79
2023-09-17T00:16:06.639Z,74.27
2023-09-17T00:17:08.874Z,73.93
2023-09-17T00:18:11.194Z,74.21
2023-09-17T00:19:14.265Z,73.61
2023-09-17T00:20:17.086Z,73.94
2023-09-17T00:21:19.017Z,74.36
2023-09-17T00:22:21.484Z,74.97
2023-09-17T00:23:23.586Z,74.67
2023-09-17T00:24:26.539Z,74.86
2023-09-17T00:25:29.666Z,74.11
2023-09-17T00:26:31.889Z,75.19
2023-09-17T00:27:34.676Z,75.11
2023-09-17T00:28:37.189Z,75.20
2023-09-17T00:29:39.602Z,74.75
2023-09-17T00:30:41.620Z,74.98
2023-09-17T00:31:44.359Z,75.00
2023-09-17T00:32:47.061Z,75.27
2023-09-17T00:33:49.380Z,74.69
2023-09-17T00:34:51.446Z,75.77
2023-09-17T00:35:53.345Z,75.39
2023-09-17T00:36:55.205Z,75.73
2023-09-17T00:37:57.158Z,76.16
2023-09-17T00:38:59.041Z,75.36
2023-09-17T00:40:00.928Z,75.42
2023-09-17T00:41:02.903Z,75.73
2023-09-17T00:42:05.217Z,75.50
2023-09-17T00:43:07.921Z,76.41
2023-09-17T00:44:10.128Z,75.87
2023-09-17T00:45:13.316Z,75.41
2023-09-17T00:46:15.704Z,76.19
2023-09-17T00:47:18.099Z,76.34
2023-09-17T00:48:21.099Z,76.35
2023-09-17T00:49:23.977Z,76.26
2023-09-17T00:50:26.674Z,75.77
2023-09-17T00:51:28.928Z,76.42
2023-09-17T00:52:34.411Z,76.53
2023-09-17T00:53:37.105Z,76.11
2023-09-17T00:54:39.420Z,76.65
2023-09-17T00:55:41.934Z,76.01
2023-09-17T00:56:44.425Z,76.36
2023-09-17T00:57:46.866Z,76.96
2023-09-17T00:58:51.632Z,76.39
2023-09-17T00:59:53.826Z,76.40
2023-09-17T01:00:59.359Z,76.92
2023-09-17T01:02:02.966Z,77.27
2023-09-17T01:03:07.959Z,77.25
2023-09-17T01:04:10.338Z,77.05
2023-09-17T01:05:12.450Z,76.94
2023-09-17T01:06:14.631Z,76.83
2023-09-17T01:07:21.743Z,76.88
2023-09-17T01:08:26.364Z,76.73
2023-09-17T01:09:30.892Z,76.77
2023-09-17T01:10:40.879Z,77.17
2023-09-17T01:11:43.785Z,77.20
2023-09-17T01:12:46.970Z,77.43
2023-09-17T01:13:52.911Z,77.44
2023-09-17T01:14:55.983Z,76.70
2023-09-17T01:16:00.452Z,77.07
2023-09-17T01:17:06.889Z,76.65
2023-09-17T01:18:11.757Z,76.73
2023-09-17T01:19:34.786Z,76.71
2023-09-17T01:21:02.748Z,77.28
2023-09-17T01:22:14.122Z,76.99
2023-09-17T01:24:14.286Z,77.37
2023-09-17T01:25:59.380Z,76.94
2023-09-17T01:27:06.924Z,77.47
2023-09-17T01:28:15.306Z,77.16
2023-09-17T01:29:24.804Z,76.97
2023-09-17T01:30:26.794Z,77.27
2023-09-17T01:31:29.115Z,77.35
2023-09-17T01:32:31.871Z,77.43
2023-09-17T01:33:35.724Z,77.70
2023-09-17T01:34:42.865Z,77.10
2023-09-17T01:36:15.076Z,77.79
2023-09-17T01:37:40.552Z,77.46
2023-09-17T01:38:53.442Z,77.54
2023-09-17T01:40:06.391Z,77.04
2023-09-17T01:41:10.134Z,77.46
2023-09-17T01:42:15.213Z,77.47
2023-09-17T01:43:20.644Z,77.82
2023-09-17T01:44:25.371Z,77.74
2023-09-17T01:45:30.371Z,78.01
2023-09-17T01:46:36.244Z,78.21
2023-09-17T01:47:39.873Z,77.57
2023-09-17T01:48:43.903Z,78.67
2023-09-17T01:49:47.553Z,78.14
2023-09-17T01:50:51.417Z,78.33
2023-09-17T01:51:57.212Z,77.66
2023-09-17T01:53:01.076Z,77.62
2023-09-17T01:54:03.144Z,77.44
2023-09-17T01:55:05.988Z,77.93
2023-09-17T01:56:07.919Z,78.31
2023-09-17T01:57:10.624Z,78.30
2023-09-17T01:58:12.644Z,78.15
2023-09-17T01:59:15.842Z,78.58
2023-09-17T02:00:20.483Z,78.55
2023-09-17T02:01:23.149Z,78.90
2023-09-17T02:02:25.875Z,78.78
2023-09-17T02:03:30.258Z,78.98
2023-09-17T02:04:32.373Z,79.52
2023-09-17T02:05:34.307Z,79.40
2023-09-17T02:06:37.469Z,79.24
2023-09-17T02:07:39.701Z,79.19
2023-09-17T02:08:42.586Z,79.35
2023-09-17T02:09:45.698Z,80.16
2023-09-17T02:10:47.678Z,79.59
2023-09-17T02:11:51.294Z,79.60
2023-09-17T02:12:53.274Z,79.65
2023-09-17T02:13:55.367Z,80.25
2023-09-17T02:14:57.297Z,80.01
2023-09-17T02:15:59.302Z,79.85
2023-09-17T02:17:01.230Z,80.38
2023-09-17T02:18:04.502Z,80.62
2023-09-17T02:19:06.373Z,80.33
2023-09-17T02:20:12.313Z,81.09
2023-09-17T02:21:14.357Z,80.47
2023-09-17T02:22:16.318Z,80.47
2023-09-17T02:23:18.353Z,81.11
2023-09-17T02:24:21.138Z,80.24
2023-09-17T02:25:23.153Z,80.62
2023-09-17T02:26:25.117Z,80.11
2023-09-17T02:27:26.966Z,80.11
2023-09-17T02:28:28.982Z,80.20
2023-09-17T02:29:30.972Z,80.82
2023-09-17T02:30:32.980Z,80.08
2023-09-17T02:31:34.961Z,80.12
2023-09-17T02:32:38.691Z,80.81
2023-09-17T02:33:42.133Z,80.71
2023-09-17T02:34:44.066Z,80.24
2023-09-17T02:35:46.024Z,80.23
2023-09-17T02:36:47.977Z,80.54
2023-09-17T02:37:51.117Z,80.67
2023-09-17T02:38:53.377Z,80.06
2023-09-17T02:39:55.255Z,80.60
2023-09-17T02:40:57.230Z,80.78
2023-09-17T02:42:00.313Z,80.60
2023-09-17T02:43:02.800Z,80.49
2023-09-17T02:44:05.027Z,80.70
2023-09-17T02:45:10.107Z,80.56
2023-09-17T02:46:12.479Z,81.06
2023-09-17T02:47:14.446Z,81.14
2023-09-17T02:48:16.871Z,80.57
2023-09-17T02:49:22.713Z,81.52
2023-09-17T02:50:24.723Z,80.75
2023-09-17T02:51:28.705Z,80.80
2023-09-17T02:52:30.798Z,81.34
2023-09-17T02:53:32.730Z,81.19
2023-09-17T02:54:35.745Z,81.10
2023-09-17T02:55:37.728Z,81.00
2023-09-17T02:56:39.602Z,80.89
2023-09-17T02:57:41.496Z,81.15
2023-09-17T02:58:43.472Z,80.51
2023-09-17T02:59:45.509Z,80.48
2023-09-17T03:00:47.560Z,80.41
2023-09-17T03:01:49.619Z,80.51
2023-09-17T03:02:55.437Z,80.70
2023-09-17T03:03:57.828Z,80.86
2023-09-17T03:05:00.881Z,80.88
2023-09-17T03:06:06.618Z,80.41
2023-09-17T03:07:08.735Z,81.04
2023-09-17T03:08:10.822Z,80.38
2023-09-17T03:09:15.162Z,80.71
2023-09-17T03:10:19.965Z,80.98
2023-09-17T03:11:22.337Z,80.70
2023-09-17T03:12:24.268Z,80.96
2023-09-17T03:13:26.238Z,81.31
2023-09-17T03:14:28.165Z,80.99
2023-09-17T03:15:30.351Z,81.44
2023-09-17T03:16:32.465Z,81.26
2023-09-17T03:17:38.530Z,80.90
2023-09-17T03:18:40.845Z,81.57
2023-09-17T03:19:43.587Z,80.67
2023-09-17T03:20:45.553Z,81.08
2023-09-17T03:21:47.542Z,80.74
2023-09-17T03:22:50.259Z,81.18
2023-09-17T03:23:53.519Z,81.05
2023-09-17T03:25:03.299Z,81.05
2023-09-17T03:26:10.753Z,80.63
2023-09-17T03:27:12.721Z,81.13
2023-09-17T03:28:14.769Z,80.74
2023-09-17T03:29:17.716Z,80.90
2023-09-17T03:30:19.872Z,81.12
2023-09-17T03:31:21.850Z,81.38
2023-09-17T03:32:24.634Z,80.93
2023-09-17T03:33:27.538Z,80.96
2023-09-17T03:34:29.685Z,81.14
2023-09-17T03:35:31.801Z,80.95
2023-09-17T03:36:36.494Z,81.16
2023-09-17T03:37:38.488Z,80.80
2023-09-17T03:38:40.797Z,80.96
2023-09-17T03:40:09.028Z,81.18
2023-09-17T03:41:12.089Z,81.82
2023-09-17T03:42:15.044Z,81.33
2023-09-17T03:43:18.196Z,81.41
2023-09-17T03:44:21.832Z,80.45
2023-09-17T03:45:25.171Z,80.67
2023-09-17T03:46:28.392Z,80.53
2023-09-17T03:47:31.511Z,81.19
2023-09-17T03:48:34.591Z,80.99
2023-09-17T03:49:39.489Z,81.23
2023-09-17T03:50:43.837Z,80.74
2023-09-17T03:51:46.376Z,81.47
2023-09-17T03:52:55.126Z,80.99
2023-09-17T03:53:57.852Z,81.00
2023-09-17T03:55:00.121Z,80.58
2023-09-17T03:56:02.202Z,80.98
2023-09-17T03:57:06.000Z,80.69
2023-09-17T03:58:10.245Z,80.80
2023-09-17T03:59:15.813Z,80.64
2023-09-17T04:00:19.091Z,81.26
2023-09-17T04:01:22.058Z,81.42
2023-09-17T04:02:24.399Z,81.21
2023-09-17T04:03:26.643Z,81.32
2023-09-17T04:04:30.160Z,81.29
2023-09-17T04:05:32.238Z,81.62
2023-09-17T04:06:35.670Z,81.58
2023-09-17T04:07:40.556Z,81.44
2023-09-17T04:08:42.474Z,81.87
2023-09-17T04:09:44.353Z,81.59
2023-09-17T04:10:46.396Z,81.78
2023-09-17T04:11:48.362Z,82.40
2023-09-17T04:12:50.345Z,82.05
2023-09-17T04:13:52.434Z,81.95
2023-09-17T04:14:54.560Z,82.32
2023-09-17T04:15:56.458Z,82.36
2023-09-17T04:17:06.007Z,83.04
2023-09-17T04:18:08.126Z,82.40
2023-09-17T04:19:11.081Z,82.89
2023-09-17T04:20:20.105Z,83.25
2023-09-17T04:21:22.263Z,82.81
2023-09-17T04:22:24.905Z,82.96
2023-09-17T04:23:27.059Z,82.69
2023-09-17T04:24:29.816Z,83.11
2023-09-17T04:25:33.407Z,82.48
2023-09-17T04:26:35.833Z,82.53
2023-09-17T04:27:42.806Z,82.38
2023-09-17T04:28:47.310Z,82.33
2023-09-17T04:29:49.368Z,82.50
2023-09-17T04:30:51.291Z,82.65
2023-09-17T04:31:53.228Z,82.97
2023-09-17T04:32:56.281Z,82.89
2023-09-17T04:33:58.890Z,82.68
2023-09-17T04:35:01.059Z,82.32
2023-09-17T04:36:04.583Z,82.51
2023-09-17T04:37:08.086Z,82.99
2023-09-17T04:38:11.284Z,83.02
2023-09-17T04:39:15.211Z,83.02
2023-09-17T04:40:19.197Z,82.74
2023-09-17T04:41:21.568Z,82.26
2023-09-17T04:42:23.454Z,83.24
2023-09-17T04:43:27.406Z,82.69
2023-09-17T04:44:29.555Z,82.47
2023-09-17T04:45:39.874Z,82.75
2023-09-17T04:47:05.092Z,83.20
2023-09-17T04:48:07.776Z,82.04
2023-09-17T04:49:11.110Z,82.68
2023-09-17T04:50:13.828Z,82.79
2023-09-17T04:51:17.822Z,83.13
2023-09-17T04:52:20.252Z,82.70
2023-09-17T04:53:22.149Z,82.29
2023-09-17T04:54:25.212Z,82.80
2023-09-17T04:55:27.618Z,82.06
2023-09-17T04:56:33.602Z,82.14
2023-09-17T04:57:37.117Z,82.20
2023-09-17T04:58:40.056Z,82.81
2023-09-17T04:59:42.136Z,82.47
2023-09-17T05:00:45.728Z,82.14
2023-09-17T05:01:49.927Z,82.25
2023-09-17T05:02:52.020Z,81.92
2023-09-17T05:03:56.038Z,82.48
2023-09-17T05:04:58.326Z,82.45
2023-09-17T05:06:00.206Z,82.05
2023-09-17T05:07:04.645Z,82.13
2023-09-17T05:08:06.737Z,82.02
2023-09-17T05:09:09.433Z,82.22
2023-09-17T05:10:11.334Z,81.63
2023-09-17T05:11:13.475Z,81.77
2023-09-17T05:12:15.610Z,81.73
2023-09-17T05:13:18.772Z,81.73
2023-09-17T05:14:22.393Z,81.15
2023-09-17T05:15:26.680Z,81.69
2023-09-17T05:16:31.400Z,81.13
2023-09-17T05:17:35.670Z,81.43
2023-09-17T05:18:38.677Z,81.46
2023-09-17T05:19:40.609Z,81.56
2023-09-17T05:20:45.505Z,80.87
2023-09-17T05:21:47.695Z,81.33
2023-09-17T05:22:49.812Z,81.05
2023-09-17T05:23:52.111Z,80.66
2023-09-17T05:24:54.618Z,80.43
2023-09-17T05:25:57.540Z,81.59
2023-09-17T05:27:02.127Z,81.39
2023-09-17T05:28:07.851Z,80.33
2023-09-17T05:29:13.556Z,80.77
2023-09-17T05:30:15.573Z,81.43
2023-09-17T05:31:17.640Z,80.61
2023-09-17T05:32:19.616Z,80.83
2023-09-17T05:33:21.555Z,80.95
2023-09-17T05:34:23.815Z,80.19
2023-09-17T05:35:25.990Z,80.72
2023-09-17T05:36:28.037Z,80.66
2023-09-17T05:37:30.936Z,80.45
2023-09-17T05:38:35.327Z,80.25
2023-09-17T05:39:38.783Z,80.36
2023-09-17T05:40:41.221Z,80.48
2023-09-17T05:41:44.112Z,79.68
2023-09-17T05:42:47.544Z,80.26
2023-09-17T05:43:51.210Z,79.67
2023-09-17T05:44:54.563Z,79.69
2023-09-17T05:45:57.964Z,80.17
2023-09-17T05:47:06.608Z,79.65
2023-09-17T05:48:08.739Z,79.75
2023-09-17T05:49:12.019Z,79.47
2023-09-17T05:50:15.211Z,79.54
2023-09-17T05:51:19.148Z,80.00
2023-09-17T05:52:22.353Z,80.10
2023-09-17T05:53:24.265Z,79.71
2023-09-17T05:54:26.493Z,80.03
2023-09-17T05:55:30.058Z,79.92
2023-09-17T05:56:32.667Z,79.43
2023-09-17T05:57:35.235Z,80.03
2023-09-17T05:58:39.664Z,79.82
2023-09-17T05:59:43.519Z,79.92
2023-09-17T06:00:45.469Z,80.16
2023-09-17T06:01:47.615Z,79.87
2023-09-17T06:02:49.663Z,79.64
2023-09-17T06:03:53.121Z,79.39
2023-09-17T06:04:56.031Z,79.53
2023-09-17T06:05:58.766Z,80.07
2023-09-17T06:07:00.938Z,80.28
2023-09-17T06:08:03.210Z,79.94
2023-09-17T06:09:06.122Z,79.95
2023-09-17T06:10:09.061Z,80.49
2023-09-17T06:11:12.567Z,80.31
2023-09-17T06:12:16.475Z,79.75
2023-09-17T06:13:19.430Z,79.25
2023-09-17T06:14:21.446Z,79.59
2023-09-17T06:15:23.317Z,79.54
2023-09-17T06:16:25.224Z,79.50
2023-09-17T06:17:27.390Z,79.24
2023-09-17T06:18:33.397Z,79.18
2023-09-17T06:19:38.501Z,78.85
2023-09-17T06:20:40.773Z,79.32
2023-09-17T06:21:44.618Z,79.14
2023-09-17T06:22:48.391Z,78.79
2023-09-17T06:23:50.732Z,78.71
2023-09-17T06:24:53.224Z,78.89
2023-09-17T06:25:55.254Z,79.12
2023-09-17T06:26:57.185Z,79.65
2023-09-17T06:27:59.064Z,78.76
2023-09-17T06:29:01.327Z,78.90
2023-09-17T06:30:03.760Z,78.67
2023-09-17T06:31:08.631Z,78.84
2023-09-17T06:32:11.870Z,78.36
2023-09-17T06:33:13.919Z,78.20
2023-09-17T06:34:16.105Z,78.18
2023-09-17T06:35:18.640Z,77.88
2023-09-17T06:36:22.589Z,78.22
2023-09-17T06:37:24.840Z,77.63
2023-09-17T06:38:27.375Z,77.77
2023-09-17T06:39:29.794Z,77.67
2023-09-17T06:40:31.911Z,77.66
2023-09-17T06:41:37.377Z,77.92
2023-09-17T06:42:41.431Z,77.37
2023-09-17T06:43:44.501Z,77.21
2023-09-17T06:44:46.574Z,77.44
2023-09-17T06:45:48.516Z,77.34
2023-09-17T06:46:51.822Z,77.04
2023-09-17T06:47:53.969Z,77.28
2023-09-17T06:48:56.237Z,77.11
2023-09-17T06:49:58.232Z,76.72
2023-09-17T06:51:00.273Z,76.57
2023-09-17T06:52:02.179Z,77.03
2023-09-17T06:53:05.382Z,76.93
2023-09-17T06:54:07.681Z,76.59
2023-09-17T06:55:10.530Z,76.36
2023-09-17T06:56:16.966Z,76.62
2023-09-17T06:57:19.010Z,75.72
2023-09-17T06:58:20.997Z,76.39
2023-09-17T06:59:22.955Z,76.11
2023-09-17T07:00:24.823Z,75.32
2023-09-17T07:01:26.907Z,75.95
2023-09-17T07:02:28.888Z,75.69
2023-09-17T07:03:31.449Z,75.84
2023-09-17T07:04:33.488Z,75.48
2023-09-17T07:05:35.429Z,75.24
2023-09-17T07:06:37.414Z,75.17
2023-09-17T07:07:39.406Z,75.06
2023-09-17T07:08:41.525Z,74.49
2023-09-17T07:09:44.226Z,74.80
2023-09-17T07:10:46.226Z,75.18
2023-09-17T07:11:48.185Z,74.52
2023-09-17T07:12:51.665Z,74.96
2023-09-17T07:13:54.920Z,75.27
2023-09-17T07:14:57.969Z,75.30
2023-09-17T07:16:00.276Z,75.14
2023-09-17T07:17:02.316Z,74.88
2023-09-17T07:18:05.117Z,74.87
2023-09-17T07:19:07.081Z,74.68
2023-09-17T07:20:09.893Z,74.42
2023-09-17T07:21:12.051Z,73.98
2023-09-17T07:22:16.040Z,74.13
2023-09-17T07:23:18.312Z,73.67
2023-09-17T07:24:20.224Z,73.63
2023-09-17T07:25:22.319Z,73.62
2023-09-17T07:26:24.781Z,73.86
2023-09-17T07:27:31.828Z,73.36
2023-09-17T07:28:34.099Z,73.10
2023-09-17T07:29:36.065Z,73.28
2023-09-17T07:30:38.235Z,72.99
2023-09-17T07:31:43.028Z,72.51
2023-09-17T07:32:45.147Z,72.21
2023-09-17T07:33:47.221Z,72.52
2023-09-17T07:34:49.281Z,72.05
2023-09-17T07:35:51.457Z,72.38
2023-09-17T07:36:54.265Z,72.10
2023-09-17T07:37:56.507Z,72.05
2023-09-17T07:38:58.397Z,71.81
2023-09-17T07:40:05.429Z,71.13
2023-09-17T07:41:07.523Z,71.07
2023-09-17T07:42:09.470Z,70.94
2023-09-17T07:43:11.915Z,70.22
2023-09-17T07:44:13.719Z,70.66
2023-09-17T07:45:15.729Z,70.03
2023-09-17T07:46:17.656Z,69.75
2023-09-17T07:47:19.713Z,68.95
2023-09-17T07:48:22.736Z,68.22
2023-09-17T07:49:28.273Z,67.40
2023-09-17T07:50:30.693Z,66.70
2023-09-17T07:51:32.631Z,66.47
2023-09-17T07:52:34.648Z,66.34
2023-09-17T07:53:36.645Z,63.12
2023-09-17T07:54:41.460Z,62.94
2023-09-17T07:55:43.336Z,61.38
2023-09-17T07:56:45.984Z,61.25
2023-09-17T07:57:47.937Z,59.08
2023-09-17T07:58:49.878Z,58.29
2023-09-17T07:59:53.460Z,57.64
2023-09-17T08:00:55.396Z,56.84
2023-09-17T08:01:59.978Z,56.15
2023-09-17T08:03:03.246Z,55.92
2023-09-17T08:04:05.734Z,55.36
2023-09-17T08:05:08.570Z,54.52
2023-09-17T08:06:12.550Z,54.08
2023-09-17T08:07:14.660Z,52.96
2023-09-17T08:08:16.751Z,53.27
2023-09-17T08:09:18.949Z,52.78
2023-09-17T08:10:22.878Z,51.58
2023-09-17T08:11:30.510Z,51.90
2023-09-17T08:12:32.505Z,50.65
2023-09-17T08:13:34.531Z,50.56
2023-09-17T08:14:37.611Z,50.21
2023-09-17T08:15:40.336Z,50.83
2023-09-17T08:16:42.545Z,50.75
2023-09-17T08:17:44.819Z,50.79
2023-09-17T08:18:46.826Z,50.09
2023-09-17T08:19:48.779Z,49.58
2023-09-17T08:20:50.656Z,49.05
2023-09-17T08:21:52.597Z,48.78
2023-09-17T08:22:54.535Z,48.67
2023-09-17T08:23:57.088Z,48.14
2023-09-17T08:24:59.028Z,48.42
2023-09-17T08:26:00.954Z,46.61
2023-09-17T08:27:02.967Z,46.84
2023-09-17T08:28:09.332Z,46.50
2023-09-17T08:29:12.776Z,46.62
2023-09-17T08:30:16.660Z,46.58
2023-09-17T08:31:19.862Z,45.92
2023-09-17T08:32:21.737Z,46.76
2023-09-17T08:33:23.641Z,46.29
2023-09-17T08:34:25.524Z,45.57
2023-09-17T08:35:27.442Z,46.17
2023-09-17T08:36:29.602Z,45.79
2023-09-17T08:37:31.550Z,45.83
2023-09-17T08:38:33.778Z,45.93
2023-09-17T08:39:35.696Z,45.91
2023-09-17T08:40:40.479Z,46.61
2023-09-17T08:41:44.031Z,46.52
2023-09-17T08:42:49.775Z,46.90
2023-09-17T08:43:55.921Z,47.22
2023-09-17T08:45:00.578Z,46.25
2023-09-17T08:46:04.629Z,45.76
2023-09-17T08:47:06.769Z,45.41
2023-09-17T08:48:09.231Z,44.81
2023-09-17T08:49:11.611Z,45.10
2023-09-17T08:50:13.501Z,45.24
2023-09-17T08:51:19.612Z,45.17
2023-09-17T08:52:26.888Z,44.24
2023-09-17T08:53:40.051Z,44.44
2023-09-17T08:54:44.358Z,44.77
2023-09-17T08:55:51.447Z,44.86
2023-09-17T08:56:57.535Z,44.54
2023-09-17T08:58:22.776Z,44.95
2023-09-17T08:59:30.750Z,44.46
2023-09-17T09:00:39.100Z,44.11
2023-09-17T09:01:45.615Z,44.46
2023-09-17T09:03:00.186Z,45.00
2023-09-17T09:04:03.815Z,44.27
2023-09-17T09:05:07.328Z,44.58
2023-09-17T09:06:11.316Z,44.08
2023-09-17T09:07:13.372Z,43.42
2023-09-17T09:08:15.715Z,44.39
2023-09-17T09:09:22.582Z,44.96
2023-09-17T09:10:25.311Z,45.28
2023-09-17T09:11:27.724Z,44.37
2023-09-17T09:12:30.550Z,44.85
2023-09-17T09:13:33.606Z,45.10
2023-09-17T09:14:35.501Z,45.18
2023-09-17T09:15:37.744Z,44.82
2023-09-17T09:16:39.748Z,43.58
2023-09-17T09:17:41.828Z,43.46
2023-09-17T09:18:44.685Z,42.73
2023-09-17T09:19:46.782Z,43.19
2023-09-17T09:20:48.846Z,42.77
2023-09-17T09:21:50.761Z,41.36
2023-09-17T09:22:52.689Z,41.83
2023-09-17T09:23:54.559Z,41.20
2023-09-17T09:24:56.418Z,41.12
2023-09-17T09:25:58.676Z,41.67
2023-09-17T09:27:00.623Z,41.44
2023-09-17T09:28:03.878Z,41.49
2023-09-17T09:29:07.772Z,40.63
2023-09-17T09:30:15.469Z,40.79
2023-09-17T09:31:17.506Z,39.94
2023-09-17T09:32:19.890Z,40.07
2023-09-17T09:33:23.108Z,39.88
2023-09-17T09:34:28.229Z,39.53
2023-09-17T09:35:31.381Z,39.47
2023-09-17T09:36:35.060Z,39.27
2023-09-17T09:37:37.160Z,39.12
2023-09-17T09:38:39.217Z,38.97
2023-09-17T09:39:44.173Z,39.74
2023-09-17T09:40:46.672Z,39.23
2023-09-17T09:41:49.572Z,40.20
2023-09-17T09:42:51.676Z,39.75
2023-09-17T09:43:55.016Z,40.35
2023-09-17T09:44:59.036Z,41.34
2023-09-17T09:46:05.911Z,41.45
2023-09-17T09:47:09.026Z,40.98
2023-09-17T09:48:17.358Z,41.26
2023-09-17T09:49:19.216Z,41.51
2023-09-17T09:50:32.270Z,42.26
2023-09-17T09:51:37.085Z,42.87
2023-09-17T09:52:41.521Z,42.35
2023-09-17T09:53:43.560Z,42.96
2023-09-17T09:54:47.549Z,43.25
2023-09-17T09:55:49.908Z,43.38
2023-09-17T09:56:53.272Z,43.62
2023-09-17T09:57:56.210Z,43.31
2023-09-17T09:59:01.244Z,43.53
2023-09-17T10:00:13.577Z,43.81
2023-09-17T10:01:17.596Z,43.30
2023-09-17T10:02:22.078Z,43.65
2023-09-17T10:03:25.543Z,43.55
2023-09-17T10:04:27.844Z,43.15
2023-09-17T10:05:35.996Z,43.21
2023-09-17T10:06:41.790Z,43.60
2023-09-17T10:07:48.559Z,42.41
2023-09-17T10:08:53.611Z,42.87
2023-09-17T10:09:55.633Z,42.84
2023-09-17T10:10:57.656Z,42.90
2023-09-17T10:12:00.687Z,43.24
2023-09-17T10:13:07.350Z,43.11
2023-09-17T10:14:11.319Z,42.94
2023-09-17T10:15:14.575Z,43.27
2023-09-17T10:16:17.011Z,42.80
2023-09-17T10:17:19.141Z,42.45
2023-09-17T10:18:23.577Z,42.53
2023-09-17T10:19:30.483Z,43.11
2023-09-17T10:20:33.535Z,43.14
2023-09-17T10:21:41.136Z,43.58
2023-09-17T10:22:44.623Z,43.62
2023-09-17T10:23:48.093Z,43.97
2023-09-17T10:24:52.931Z,43.69
2023-09-17T10:26:00.499Z,44.21
2023-09-17T10:27:04.700Z,44.01
2023-09-17T10:28:08.765Z,44.23
2023-09-17T10:29:15.230Z,44.05
2023-09-17T10:30:19.710Z,44.64
2023-09-17T10:31:23.489Z,44.68
2023-09-17T10:32:27.444Z,45.96
2023-09-17T10:33:33.677Z,46.18
2023-09-17T10:34:37.217Z,46.70
2023-09-17T10:35:40.680Z,46.74
2023-09-17T10:36:44.284Z,46.62
2023-09-17T10:37:48.394Z,47.47
2023-09-17T10:38:56.024Z,46.83
2023-09-17T10:39:59.013Z,46.69
2023-09-17T10:41:03.607Z,46.34
2023-09-17T10:42:09.477Z,46.34
2023-09-17T10:43:13.267Z,46.02
2023-09-17T10:44:19.168Z,45.14
2023-09-17T10:45:23.606Z,45.10
2023-09-17T10:46:29.560Z,44.63
2023-09-17T10:47:36.588Z,45.65
2023-09-17T10:48:42.078Z,46.26
2023-09-17T10:49:45.691Z,46.52
2023-09-17T10:50:49.367Z,45.89
2023-09-17T10:51:54.426Z,46.39
2023-09-17T10:52:56.618Z,46.88
2023-09-17T10:53:58.527Z,46.22
2023-09-17T10:55:01.031Z,46.82
2023-09-17T10:56:11.818Z,47.83
2023-09-17T10:57:32.930Z,50.13
2023-09-17T10:58:50.032Z,48.10
2023-09-17T10:59:55.194Z,47.85
2023-09-17T11:01:01.526Z,48.65
2023-09-17T11:02:06.842Z,48.58
2023-09-17T11:03:12.354Z,48.13
2023-09-17T11:04:24.631Z,48.61
2023-09-17T11:05:31.332Z,47.83
2023-09-17T11:06:36.050Z,47.44
2023-09-17T11:07:41.054Z,48.08
2023-09-17T11:08:48.176Z,46.08
2023-09-17T11:09:50.607Z,46.13
2023-09-17T11:10:52.603Z,46.03
2023-09-17T11:11:54.678Z,45.94
2023-09-17T11:12:57.485Z,46.56
2023-09-17T11:14:00.144Z,45.60
2023-09-17T11:15:02.313Z,46.00
2023-09-17T11:16:04.222Z,46.18
2023-09-17T11:17:10.333Z,46.42
2023-09-17T11:18:12.688Z,46.49
2023-09-17T11:19:17.861Z,47.07
2023-09-17T11:20:22.107Z,47.58
2023-09-17T11:21:24.101Z,48.85
2023-09-17T11:22:31.290Z,47.63
2023-09-17T11:23:59.841Z,47.05
2023-09-17T11:25:04.396Z,47.65
2023-09-17T11:26:08.727Z,48.17
2023-09-17T11:27:12.880Z,48.24
2023-09-17T11:28:16.513Z,50.19
2023-09-17T11:29:18.471Z,49.26
2023-09-17T11:30:24.925Z,48.64
2023-09-17T11:31:28.212Z,49.03
2023-09-17T11:32:30.354Z,48.49
2023-09-17T11:33:33.179Z,48.55
2023-09-17T11:34:39.973Z,48.93
2023-09-17T11:35:42.140Z,46.20
2023-09-17T11:36:47.343Z,47.95
2023-09-17T11:37:50.829Z,48.72
2023-09-17T11:38:53.144Z,48.23
2023-09-17T11:39:55.513Z,47.16
2023-09-17T11:41:11.040Z,47.90
2023-09-17T11:42:14.662Z,47.30
2023-09-17T11:43:17.188Z,46.74
2023-09-17T11:44:21.945Z,46.14
2023-09-17T11:45:23.877Z,47.46
2023-09-17T11:46:26.234Z,46.47
2023-09-17T11:47:28.454Z,46.01
2023-09-17T11:48:31.616Z,45.71
2023-09-17T11:49:35.989Z,44.93
2023-09-17T11:50:38.094Z,45.35
2023-09-17T11:51:48.542Z,45.12
2023-09-17T11:53:08.527Z,45.36
2023-09-17T11:54:16.514Z,45.35
2023-09-17T11:55:24.562Z,45.45
2023-09-17T11:56:33.172Z,45.32
2023-09-17T11:57:35.443Z,45.72
2023-09-17T11:58:37.661Z,47.22
2023-09-17T11:59:39.913Z,45.48
2023-09-17T12:00:42.365Z,46.58
2023-09-17T12:01:54.554Z,45.50
2023-09-17T12:02:56.788Z,46.40
2023-09-17T12:04:00.171Z,46.90
2023-09-17T12:05:02.395Z,46.94
2023-09-17T12:06:06.051Z,47.00
2023-09-17T12:07:13.634Z,46.88
2023-09-17T12:08:21.433Z,46.62
2023-09-17T12:09:31.457Z,47.27
2023-09-17T12:10:38.206Z,45.50
2023-09-17T12:11:40.237Z,46.81
2023-09-17T12:12:44.125Z,47.49
2023-09-17T12:13:47.215Z,46.67
2023-09-17T12:14:50.441Z,45.53
2023-09-17T12:15:52.576Z,45.63
2023-09-17T12:16:54.916Z,46.97
2023-09-17T12:17:58.044Z,46.61
2023-09-17T12:19:11.607Z,47.00
2023-09-17T12:20:57.865Z,45.87
2023-09-17T12:22:01.109Z,46.91
2023-09-17T12:23:08.123Z,48.21
2023-09-17T12:24:27.213Z,46.31
2023-09-17T12:25:29.219Z,47.38
2023-09-17T12:27:09.908Z,47.66
2023-09-17T12:28:13.291Z,46.45
2023-09-17T12:29:15.278Z,46.36
2023-09-17T12:30:17.203Z,46.54
2023-09-17T12:31:20.120Z,47.32
2023-09-17T12:32:26.837Z,47.68
2023-09-17T12:33:29.119Z,47.79
2023-09-17T12:34:31.463Z,47.79
2023-09-17T12:35:35.093Z,47.72
2023-09-17T12:36:37.281Z,48.13
2023-09-17T12:37:39.254Z,48.19
2023-09-17T12:38:41.355Z,48.88
2023-09-17T12:39:43.657Z,48.07
2023-09-17T12:40:45.628Z,47.77
2023-09-17T12:41:47.613Z,47.41
2023-09-17T12:42:49.500Z,47.71
2023-09-17T12:43:51.663Z,46.96
2023-09-17T12:44:56.973Z,47.59
2023-09-17T12:45:59.022Z,47.40
2023-09-17T12:47:01.055Z,46.83
2023-09-17T12:48:03.358Z,46.82
2023-09-17T12:49:06.718Z,46.40
2023-09-17T12:50:09.107Z,46.72
2023-09-17T12:51:12.849Z,46.55
2023-09-17T12:52:19.031Z,46.54
2023-09-17T12:53:21.258Z,46.83
2023-09-17T12:54:24.337Z,46.32
2023-09-17T12:55:28.228Z,46.66
2023-09-17T12:56:31.127Z,46.29
2023-09-17T12:57:33.416Z,46.47
2023-09-17T12:58:35.344Z,46.19
2023-09-17T12:59:39.017Z,46.28
2023-09-17T13:00:41.192Z,46.34
2023-09-17T13:01:58.291Z,45.67
2023-09-17T13:03:12.953Z,45.87
2023-09-17T13:04:14.961Z,45.80
2023-09-17T13:05:21.765Z,46.26
2023-09-17T13:06:27.568Z,45.74
2023-09-17T13:07:32.695Z,46.83
2023-09-17T13:08:34.702Z,45.86
2023-09-17T13:09:36.804Z,45.27
2023-09-17T13:10:39.554Z,46.31
2023-09-17T13:11:41.853Z,45.57
2023-09-17T13:12:46.746Z,45.97
2023-09-17T13:13:51.574Z,45.17
2023-09-17T13:14:55.569Z,45.61
2023-09-17T13:15:57.561Z,44.88
2023-09-17T13:17:00.014Z,46.30
2023-09-17T13:18:02.404Z,45.98
2023-09-17T13:19:04.533Z,46.78
2023-09-17T13:20:08.218Z,45.38
2023-09-17T13:21:10.638Z,45.01
2023-09-17T13:22:14.628Z,44.87
2023-09-17T13:23:16.825Z,44.53
2023-09-17T13:24:20.264Z,45.35
2023-09-17T13:25:22.754Z,45.13
2023-09-17T13:26:27.487Z,44.91
2023-09-17T13:27:32.729Z,45.92
2023-09-17T13:28:35.632Z,45.88
2023-09-17T13:29:43.099Z,45.03
2023-09-17T13:30:46.658Z,44.93
2023-09-17T13:31:52.329Z,46.10
2023-09-17T13:32:57.666Z,46.43
2023-09-17T13:34:00.274Z,46.11
2023-09-17T13:35:04.675Z,46.04
2023-09-17T13:36:10.711Z,45.31
2023-09-17T13:37:15.145Z,44.93
2023-09-17T13:38:21.574Z,44.66
2023-09-17T13:39:25.118Z,44.34
2023-09-17T13:40:27.326Z,44.72
2023-09-17T13:41:37.025Z,45.00
2023-09-17T13:42:40.744Z,44.74
2023-09-17T13:43:43.168Z,44.40
2023-09-17T13:44:45.595Z,44.44